Terminal Aerodrome Forecast
Issued by NWS

Home | Current Version | Previous Version | Text Only | Print | Product List | Glossary Off
Versions: 1 2 3 4 5 6 7 8 9 10 11 12 13 14 15 16 17 18 19 20 21 22 23 24

617
FTUS45 KGGW 170520
TAFGDV
TAF
KGDV 170520Z 1706/1806 27009KT P6SM BKN070
     FM171100 32011KT P6SM BKN035
     FM172100 16005KT P6SM BKN080
     FM180000 13006KT P6SM VCSH BKN060
     FM180300 09008KT 5SM -SN OVC035=

USA.gov is the U.S. government's official web portal to all federal, state and local government web resources and services.